<?xml version="1.0" encoding="UTF-8" standalone="no" ?>
<gpx xmlns="http://www.topografix.com/GPX/1/1" xmlns:xsi="http://www.w3.org/2001/XMLSchema-instance" xsi:schemaLocation="http://www.topografix.com/GPX/1/1 http://www.topografix.com/GPX/1/1/gpx.xsd" version="1.1" creator="VisuGPX - https://www.visugpx.com">
  <metadata>
    <name>Chabanais-St Junien</name>
    <desc><![CDATA[Grand Itinéraire EquiLiberté : du Poitou/charente à l'Italie]]></desc>
  </metadata>
  <trk>
    <name><![CDATA[chabanais-stjunien-fait]]></name>
    <trkseg>
      <trkpt lat="45.87982" lon="0.71346">
        <ele>68.87</ele>
        <time>2017-07-03T13:05:01Z</time>
      </trkpt>
      <trkpt lat="45.87985" lon="0.71346">
        <ele>72.24</ele>
        <time>2017-07-03T13:06:02Z</time>
      </trkpt>
      <trkpt lat="45.87984" lon="0.71345">
        <ele>73.68</ele>
        <time>2017-07-03T13:06:25Z</time>
      </trkpt>
      <trkpt lat="45.87985" lon="0.71339">
        <ele>73.68</ele>
        <time>2017-07-03T13:06:29Z</time>
      </trkpt>
      <trkpt lat="45.88029" lon="0.71326">
        <ele>76.56</ele>
        <time>2017-07-03T13:06:48Z</time>
      </trkpt>
      <trkpt lat="45.88081" lon="0.71336">
        <ele>79.45</ele>
        <time>2017-07-03T13:07:07Z</time>
      </trkpt>
      <trkpt lat="45.8813" lon="0.71355">
        <ele>82.33</ele>
        <time>2017-07-03T13:07:23Z</time>
      </trkpt>
      <trkpt lat="45.88157" lon="0.71371">
        <ele>85.69</ele>
        <time>2017-07-03T13:07:31Z</time>
      </trkpt>
      <trkpt lat="45.88187" lon="0.71389">
        <ele>89.06</ele>
        <time>2017-07-03T13:07:40Z</time>
      </trkpt>
      <trkpt lat="45.88299" lon="0.71451">
        <ele>90.5</ele>
        <time>2017-07-03T13:08:09Z</time>
      </trkpt>
      <trkpt lat="45.88406" lon="0.71481">
        <ele>93.39</ele>
        <time>2017-07-03T13:08:36Z</time>
      </trkpt>
      <trkpt lat="45.88477" lon="0.71499">
        <ele>96.27</ele>
        <time>2017-07-03T13:08:54Z</time>
      </trkpt>
      <trkpt lat="45.88481" lon="0.715">
        <ele>96.75</ele>
        <time>2017-07-03T13:08:55Z</time>
      </trkpt>
      <trkpt lat="45.88517" lon="0.71503">
        <ele>100.11</ele>
        <time>2017-07-03T13:09:04Z</time>
      </trkpt>
      <trkpt lat="45.88577" lon="0.71498">
        <ele>103</ele>
        <time>2017-07-03T13:09:20Z</time>
      </trkpt>
      <trkpt lat="45.88639" lon="0.71491">
        <ele>106.84</ele>
        <time>2017-07-03T13:09:36Z</time>
      </trkpt>
      <trkpt lat="45.88704" lon="0.71488">
        <ele>109.73</ele>
        <time>2017-07-03T13:09:53Z</time>
      </trkpt>
      <trkpt lat="45.88787" lon="0.71469">
        <ele>113.09</ele>
        <time>2017-07-03T13:10:16Z</time>
      </trkpt>
      <trkpt lat="45.88831" lon="0.71467">
        <ele>114.53</ele>
        <time>2017-07-03T13:10:30Z</time>
      </trkpt>
      <trkpt lat="45.88833" lon="0.71469">
        <ele>114.53</ele>
        <time>2017-07-03T13:10:31Z</time>
      </trkpt>
      <trkpt lat="45.88835" lon="0.71472">
        <ele>115.01</ele>
        <time>2017-07-03T13:10:32Z</time>
      </trkpt>
      <trkpt lat="45.88871" lon="0.71572">
        <ele>118.38</ele>
        <time>2017-07-03T13:10:55Z</time>
      </trkpt>
      <trkpt lat="45.8888" lon="0.71644">
        <ele>121.74</ele>
        <time>2017-07-03T13:11:07Z</time>
      </trkpt>
      <trkpt lat="45.8888" lon="0.71759">
        <ele>118.86</ele>
        <time>2017-07-03T13:11:30Z</time>
      </trkpt>
      <trkpt lat="45.88884" lon="0.71834">
        <ele>117.42</ele>
        <time>2017-07-03T13:11:50Z</time>
      </trkpt>
      <trkpt lat="45.88886" lon="0.71835">
        <ele>117.42</ele>
        <time>2017-07-03T13:11:51Z</time>
      </trkpt>
      <trkpt lat="45.88889" lon="0.71835">
        <ele>117.42</ele>
        <time>2017-07-03T13:11:52Z</time>
      </trkpt>
      <trkpt lat="45.88892" lon="0.71835">
        <ele>117.9</ele>
        <time>2017-07-03T13:11:53Z</time>
      </trkpt>
      <trkpt lat="45.88896" lon="0.71834">
        <ele>117.9</ele>
        <time>2017-07-03T13:11:54Z</time>
      </trkpt>
      <trkpt lat="45.889" lon="0.71834">
        <ele>118.38</ele>
        <time>2017-07-03T13:11:55Z</time>
      </trkpt>
      <trkpt lat="45.8895" lon="0.71825">
        <ele>121.74</ele>
        <time>2017-07-03T13:12:09Z</time>
      </trkpt>
      <trkpt lat="45.88994" lon="0.71814">
        <ele>124.63</ele>
        <time>2017-07-03T13:12:21Z</time>
      </trkpt>
      <trkpt lat="45.89045" lon="0.71792">
        <ele>127.99</ele>
        <time>2017-07-03T13:12:37Z</time>
      </trkpt>
      <trkpt lat="45.89115" lon="0.71809">
        <ele>130.4</ele>
        <time>2017-07-03T13:12:59Z</time>
      </trkpt>
      <trkpt lat="45.89263" lon="0.71914">
        <ele>132.8</ele>
        <time>2017-07-03T13:13:33Z</time>
      </trkpt>
      <trkpt lat="45.89328" lon="0.71975">
        <ele>136.16</ele>
        <time>2017-07-03T13:13:50Z</time>
      </trkpt>
      <trkpt lat="45.89412" lon="0.72084">
        <ele>137.13</ele>
        <time>2017-07-03T13:14:16Z</time>
      </trkpt>
      <trkpt lat="45.89437" lon="0.72096">
        <ele>138.09</ele>
        <time>2017-07-03T13:14:31Z</time>
      </trkpt>
      <trkpt lat="45.89523" lon="0.72133">
        <ele>139.05</ele>
        <time>2017-07-03T13:14:55Z</time>
      </trkpt>
      <trkpt lat="45.89619" lon="0.72168">
        <ele>139.05</ele>
        <time>2017-07-03T13:15:25Z</time>
      </trkpt>
      <trkpt lat="45.89675" lon="0.72196">
        <ele>140.49</ele>
        <time>2017-07-03T13:15:49Z</time>
      </trkpt>
      <trkpt lat="45.89707" lon="0.72251">
        <ele>138.57</ele>
        <time>2017-07-03T13:16:09Z</time>
      </trkpt>
      <trkpt lat="45.89716" lon="0.7231">
        <ele>140.01</ele>
        <time>2017-07-03T13:16:28Z</time>
      </trkpt>
      <trkpt lat="45.89716" lon="0.72314">
        <ele>140.01</ele>
        <time>2017-07-03T13:16:29Z</time>
      </trkpt>
      <trkpt lat="45.89717" lon="0.72319">
        <ele>140.01</ele>
        <time>2017-07-03T13:16:30Z</time>
      </trkpt>
      <trkpt lat="45.8973" lon="0.72363">
        <ele>142.89</ele>
        <time>2017-07-03T13:16:40Z</time>
      </trkpt>
      <trkpt lat="45.89738" lon="0.7239">
        <ele>145.3</ele>
        <time>2017-07-03T13:16:46Z</time>
      </trkpt>
      <trkpt lat="45.89742" lon="0.72423">
        <ele>148.66</ele>
        <time>2017-07-03T13:16:53Z</time>
      </trkpt>
      <trkpt lat="45.89745" lon="0.72467">
        <ele>152.03</ele>
        <time>2017-07-03T13:17:03Z</time>
      </trkpt>
      <trkpt lat="45.89763" lon="0.72509">
        <ele>153.47</ele>
        <time>2017-07-03T13:17:13Z</time>
      </trkpt>
      <trkpt lat="45.89809" lon="0.72583">
        <ele>156.35</ele>
        <time>2017-07-03T13:17:32Z</time>
      </trkpt>
      <trkpt lat="45.89879" lon="0.72618">
        <ele>159.24</ele>
        <time>2017-07-03T13:17:53Z</time>
      </trkpt>
      <trkpt lat="45.89948" lon="0.72645">
        <ele>162.12</ele>
        <time>2017-07-03T13:18:13Z</time>
      </trkpt>
      <trkpt lat="45.8999" lon="0.72668">
        <ele>165.48</ele>
        <time>2017-07-03T13:18:26Z</time>
      </trkpt>
      <trkpt lat="45.90025" lon="0.72691">
        <ele>168.37</ele>
        <time>2017-07-03T13:18:36Z</time>
      </trkpt>
      <trkpt lat="45.90095" lon="0.72736">
        <ele>170.77</ele>
        <time>2017-07-03T13:18:58Z</time>
      </trkpt>
      <trkpt lat="45.90175" lon="0.72773">
        <ele>173.17</ele>
        <time>2017-07-03T13:19:20Z</time>
      </trkpt>
      <trkpt lat="45.90257" lon="0.72815">
        <ele>176.54</ele>
        <time>2017-07-03T13:19:44Z</time>
      </trkpt>
      <trkpt lat="45.90312" lon="0.7285">
        <ele>179.9</ele>
        <time>2017-07-03T13:20:02Z</time>
      </trkpt>
      <trkpt lat="45.90367" lon="0.72854">
        <ele>182.31</ele>
        <time>2017-07-03T13:20:21Z</time>
      </trkpt>
      <trkpt lat="45.90378" lon="0.72851">
        <ele>183.75</ele>
        <time>2017-07-03T13:20:38Z</time>
      </trkpt>
      <trkpt lat="45.90387" lon="0.72858">
        <ele>186.63</ele>
        <time>2017-07-03T13:22:08Z</time>
      </trkpt>
      <trkpt lat="45.90388" lon="0.72856">
        <ele>187.11</ele>
        <time>2017-07-03T13:22:09Z</time>
      </trkpt>
      <trkpt lat="45.90389" lon="0.72854">
        <ele>186.63</ele>
        <time>2017-07-03T13:22:10Z</time>
      </trkpt>
      <trkpt lat="45.90433" lon="0.72827">
        <ele>188.56</ele>
        <time>2017-07-03T13:22:25Z</time>
      </trkpt>
      <trkpt lat="45.90519" lon="0.728">
        <ele>191.44</ele>
        <time>2017-07-03T13:22:48Z</time>
      </trkpt>
      <trkpt lat="45.90576" lon="0.72788">
        <ele>192.88</ele>
        <time>2017-07-03T13:23:03Z</time>
      </trkpt>
      <trkpt lat="45.9058" lon="0.72786">
        <ele>193.36</ele>
        <time>2017-07-03T13:23:04Z</time>
      </trkpt>
      <trkpt lat="45.90663" lon="0.72723">
        <ele>192.88</ele>
        <time>2017-07-03T13:23:29Z</time>
      </trkpt>
      <trkpt lat="45.90679" lon="0.72716">
        <ele>192.88</ele>
        <time>2017-07-03T13:23:33Z</time>
      </trkpt>
      <trkpt lat="45.90787" lon="0.72683">
        <ele>190.96</ele>
        <time>2017-07-03T13:24:00Z</time>
      </trkpt>
      <trkpt lat="45.90873" lon="0.72694">
        <ele>190.96</ele>
        <time>2017-07-03T13:24:24Z</time>
      </trkpt>
      <trkpt lat="45.90923" lon="0.72718">
        <ele>188.56</ele>
        <time>2017-07-03T13:24:38Z</time>
      </trkpt>
      <trkpt lat="45.90925" lon="0.72721">
        <ele>188.56</ele>
        <time>2017-07-03T13:24:39Z</time>
      </trkpt>
      <trkpt lat="45.90926" lon="0.72726">
        <ele>188.56</ele>
        <time>2017-07-03T13:24:40Z</time>
      </trkpt>
      <trkpt lat="45.90925" lon="0.7273">
        <ele>188.56</ele>
        <time>2017-07-03T13:24:41Z</time>
      </trkpt>
      <trkpt lat="45.90924" lon="0.72736">
        <ele>189.04</ele>
        <time>2017-07-03T13:24:42Z</time>
      </trkpt>
      <trkpt lat="45.90912" lon="0.7282">
        <ele>187.59</ele>
        <time>2017-07-03T13:24:56Z</time>
      </trkpt>
      <trkpt lat="45.90912" lon="0.72827">
        <ele>187.59</ele>
        <time>2017-07-03T13:24:57Z</time>
      </trkpt>
      <trkpt lat="45.90952" lon="0.72992">
        <ele>185.19</ele>
        <time>2017-07-03T13:25:18Z</time>
      </trkpt>
      <trkpt lat="45.9098" lon="0.73119">
        <ele>188.56</ele>
        <time>2017-07-03T13:25:41Z</time>
      </trkpt>
      <trkpt lat="45.90973" lon="0.73184">
        <ele>191.92</ele>
        <time>2017-07-03T13:25:53Z</time>
      </trkpt>
      <trkpt lat="45.90962" lon="0.73238">
        <ele>194.8</ele>
        <time>2017-07-03T13:26:03Z</time>
      </trkpt>
      <trkpt lat="45.90949" lon="0.73291">
        <ele>197.69</ele>
        <time>2017-07-03T13:26:14Z</time>
      </trkpt>
      <trkpt lat="45.90917" lon="0.73399">
        <ele>196.73</ele>
        <time>2017-07-03T13:26:37Z</time>
      </trkpt>
      <trkpt lat="45.9091" lon="0.73425">
        <ele>195.77</ele>
        <time>2017-07-03T13:26:55Z</time>
      </trkpt>
      <trkpt lat="45.90904" lon="0.73451">
        <ele>195.77</ele>
        <time>2017-07-03T13:27:15Z</time>
      </trkpt>
      <trkpt lat="45.90906" lon="0.73449">
        <ele>196.25</ele>
        <time>2017-07-03T13:27:29Z</time>
      </trkpt>
      <trkpt lat="45.90906" lon="0.73448">
        <ele>196.25</ele>
        <time>2017-07-03T13:27:30Z</time>
      </trkpt>
      <trkpt lat="45.9091" lon="0.73441">
        <ele>196.25</ele>
        <time>2017-07-03T13:27:34Z</time>
      </trkpt>
      <trkpt lat="45.90912" lon="0.73441">
        <ele>196.73</ele>
        <time>2017-07-03T13:27:35Z</time>
      </trkpt>
      <trkpt lat="45.90914" lon="0.73443">
        <ele>197.21</ele>
        <time>2017-07-03T13:27:36Z</time>
      </trkpt>
      <trkpt lat="45.90916" lon="0.73445">
        <ele>196.73</ele>
        <time>2017-07-03T13:27:37Z</time>
      </trkpt>
      <trkpt lat="45.90917" lon="0.73448">
        <ele>197.21</ele>
        <time>2017-07-03T13:27:38Z</time>
      </trkpt>
      <trkpt lat="45.90919" lon="0.73451">
        <ele>197.21</ele>
        <time>2017-07-03T13:27:39Z</time>
      </trkpt>
      <trkpt lat="45.90924" lon="0.73456">
        <ele>197.69</ele>
        <time>2017-07-03T13:27:41Z</time>
      </trkpt>
      <trkpt lat="45.90927" lon="0.73458">
        <ele>197.69</ele>
        <time>2017-07-03T13:27:42Z</time>
      </trkpt>
      <trkpt lat="45.90974" lon="0.73538">
        <ele>200.57</ele>
        <time>2017-07-03T13:28:03Z</time>
      </trkpt>
      <trkpt lat="45.91017" lon="0.73637">
        <ele>202.98</ele>
        <time>2017-07-03T13:28:22Z</time>
      </trkpt>
      <trkpt lat="45.91019" lon="0.73642">
        <ele>203.46</ele>
        <time>2017-07-03T13:28:23Z</time>
      </trkpt>
      <trkpt lat="45.91056" lon="0.73759">
        <ele>205.38</ele>
        <time>2017-07-03T13:28:44Z</time>
      </trkpt>
      <trkpt lat="45.91058" lon="0.73766">
        <ele>205.86</ele>
        <time>2017-07-03T13:28:45Z</time>
      </trkpt>
      <trkpt lat="45.91091" lon="0.73955">
        <ele>208.26</ele>
        <time>2017-07-03T13:29:16Z</time>
      </trkpt>
      <trkpt lat="45.91139" lon="0.74099">
        <ele>211.63</ele>
        <time>2017-07-03T13:29:41Z</time>
      </trkpt>
      <trkpt lat="45.91177" lon="0.74214">
        <ele>213.55</ele>
        <time>2017-07-03T13:30:02Z</time>
      </trkpt>
      <trkpt lat="45.91199" lon="0.74293">
        <ele>214.03</ele>
        <time>2017-07-03T13:30:17Z</time>
      </trkpt>
      <trkpt lat="45.91231" lon="0.74456">
        <ele>211.63</ele>
        <time>2017-07-03T13:30:42Z</time>
      </trkpt>
      <trkpt lat="45.91266" lon="0.74634">
        <ele>209.22</ele>
        <time>2017-07-03T13:31:12Z</time>
      </trkpt>
      <trkpt lat="45.91267" lon="0.74713">
        <ele>209.22</ele>
        <time>2017-07-03T13:31:38Z</time>
      </trkpt>
      <trkpt lat="45.91258" lon="0.74769">
        <ele>209.7</ele>
        <time>2017-07-03T13:31:56Z</time>
      </trkpt>
      <trkpt lat="45.91249" lon="0.74895">
        <ele>213.07</ele>
        <time>2017-07-03T13:32:18Z</time>
      </trkpt>
      <trkpt lat="45.91248" lon="0.7498">
        <ele>213.07</ele>
        <time>2017-07-03T13:32:36Z</time>
      </trkpt>
      <trkpt lat="45.91255" lon="0.7502">
        <ele>214.03</ele>
        <time>2017-07-03T13:32:43Z</time>
      </trkpt>
      <trkpt lat="45.91262" lon="0.75151">
        <ele>214.03</ele>
        <time>2017-07-03T13:33:07Z</time>
      </trkpt>
      <trkpt lat="45.91254" lon="0.75268">
        <ele>215.47</ele>
        <time>2017-07-03T13:33:34Z</time>
      </trkpt>
      <trkpt lat="45.91231" lon="0.75384">
        <ele>217.4</ele>
        <time>2017-07-03T13:34:01Z</time>
      </trkpt>
      <trkpt lat="45.91216" lon="0.75509">
        <ele>219.8</ele>
        <time>2017-07-03T13:34:33Z</time>
      </trkpt>
      <trkpt lat="45.91216" lon="0.7551">
        <ele>220.28</ele>
        <time>2017-07-03T13:35:12Z</time>
      </trkpt>
      <trkpt lat="45.91211" lon="0.75562">
        <ele>221.24</ele>
        <time>2017-07-03T13:35:58Z</time>
      </trkpt>
      <trkpt lat="45.91208" lon="0.75627">
        <ele>220.28</ele>
        <time>2017-07-03T13:36:21Z</time>
      </trkpt>
      <trkpt lat="45.91192" lon="0.757">
        <ele>220.28</ele>
        <time>2017-07-03T13:36:43Z</time>
      </trkpt>
      <trkpt lat="45.91157" lon="0.75854">
        <ele>219.32</ele>
        <time>2017-07-03T13:37:17Z</time>
      </trkpt>
      <trkpt lat="45.91131" lon="0.75972">
        <ele>220.28</ele>
        <time>2017-07-03T13:37:44Z</time>
      </trkpt>
      <trkpt lat="45.91124" lon="0.7605">
        <ele>221.24</ele>
        <time>2017-07-03T13:38:03Z</time>
      </trkpt>
      <trkpt lat="45.91119" lon="0.76115">
        <ele>217.88</ele>
        <time>2017-07-03T13:38:19Z</time>
      </trkpt>
      <trkpt lat="45.9111" lon="0.76203">
        <ele>215.47</ele>
        <time>2017-07-03T13:38:38Z</time>
      </trkpt>
      <trkpt lat="45.91111" lon="0.76245">
        <ele>215.47</ele>
        <time>2017-07-03T13:38:48Z</time>
      </trkpt>
      <trkpt lat="45.91116" lon="0.76311">
        <ele>214.51</ele>
        <time>2017-07-03T13:39:04Z</time>
      </trkpt>
      <trkpt lat="45.91124" lon="0.76384">
        <ele>214.99</ele>
        <time>2017-07-03T13:39:22Z</time>
      </trkpt>
      <trkpt lat="45.91128" lon="0.76412">
        <ele>214.99</ele>
        <time>2017-07-03T13:39:29Z</time>
      </trkpt>
      <trkpt lat="45.91128" lon="0.76415">
        <ele>214.99</ele>
        <time>2017-07-03T13:39:30Z</time>
      </trkpt>
      <trkpt lat="45.91135" lon="0.76477">
        <ele>215.47</ele>
        <time>2017-07-03T13:39:48Z</time>
      </trkpt>
      <trkpt lat="45.91161" lon="0.76561">
        <ele>215.95</ele>
        <time>2017-07-03T13:40:08Z</time>
      </trkpt>
      <trkpt lat="45.91179" lon="0.76617">
        <ele>217.4</ele>
        <time>2017-07-03T13:40:25Z</time>
      </trkpt>
      <trkpt lat="45.91183" lon="0.7663">
        <ele>219.32</ele>
        <time>2017-07-03T13:43:15Z</time>
      </trkpt>
      <trkpt lat="45.91204" lon="0.76705">
        <ele>220.76</ele>
        <time>2017-07-03T13:43:37Z</time>
      </trkpt>
      <trkpt lat="45.91223" lon="0.7678">
        <ele>221.24</ele>
        <time>2017-07-03T13:43:59Z</time>
      </trkpt>
      <trkpt lat="45.91257" lon="0.76907">
        <ele>223.64</ele>
        <time>2017-07-03T13:44:29Z</time>
      </trkpt>
      <trkpt lat="45.91275" lon="0.77032">
        <ele>225.57</ele>
        <time>2017-07-03T13:44:58Z</time>
      </trkpt>
      <trkpt lat="45.91293" lon="0.77124">
        <ele>227.97</ele>
        <time>2017-07-03T13:45:19Z</time>
      </trkpt>
      <trkpt lat="45.91328" lon="0.77218">
        <ele>229.41</ele>
        <time>2017-07-03T13:45:44Z</time>
      </trkpt>
      <trkpt lat="45.91356" lon="0.77275">
        <ele>232.3</ele>
        <time>2017-07-03T13:46:01Z</time>
      </trkpt>
      <trkpt lat="45.91378" lon="0.77299">
        <ele>234.7</ele>
        <time>2017-07-03T13:46:11Z</time>
      </trkpt>
      <trkpt lat="45.91379" lon="0.77301">
        <ele>235.18</ele>
        <time>2017-07-03T13:46:12Z</time>
      </trkpt>
      <trkpt lat="45.91406" lon="0.77335">
        <ele>237.1</ele>
        <time>2017-07-03T13:46:27Z</time>
      </trkpt>
      <trkpt lat="45.91408" lon="0.77338">
        <ele>237.1</ele>
        <time>2017-07-03T13:46:28Z</time>
      </trkpt>
      <trkpt lat="45.91444" lon="0.77377">
        <ele>239.02</ele>
        <time>2017-07-03T13:46:44Z</time>
      </trkpt>
      <trkpt lat="45.91478" lon="0.77423">
        <ele>242.39</ele>
        <time>2017-07-03T13:47:00Z</time>
      </trkpt>
      <trkpt lat="45.91486" lon="0.77438">
        <ele>244.79</ele>
        <time>2017-07-03T13:47:07Z</time>
      </trkpt>
      <trkpt lat="45.91486" lon="0.7744">
        <ele>244.79</ele>
        <time>2017-07-03T13:47:08Z</time>
      </trkpt>
      <trkpt lat="45.91485" lon="0.77441">
        <ele>245.27</ele>
        <time>2017-07-03T13:47:09Z</time>
      </trkpt>
      <trkpt lat="45.91483" lon="0.77442">
        <ele>244.79</ele>
        <time>2017-07-03T13:47:10Z</time>
      </trkpt>
      <trkpt lat="45.91481" lon="0.77443">
        <ele>245.27</ele>
        <time>2017-07-03T13:47:11Z</time>
      </trkpt>
      <trkpt lat="45.91478" lon="0.77444">
        <ele>245.27</ele>
        <time>2017-07-03T13:47:31Z</time>
      </trkpt>
      <trkpt lat="45.91479" lon="0.77445">
        <ele>245.75</ele>
        <time>2017-07-03T13:47:37Z</time>
      </trkpt>
      <trkpt lat="45.91481" lon="0.77444">
        <ele>245.75</ele>
        <time>2017-07-03T13:47:38Z</time>
      </trkpt>
      <trkpt lat="45.91482" lon="0.77443">
        <ele>245.75</ele>
        <time>2017-07-03T13:47:39Z</time>
      </trkpt>
      <trkpt lat="45.91484" lon="0.77444">
        <ele>245.75</ele>
        <time>2017-07-03T13:47:40Z</time>
      </trkpt>
      <trkpt lat="45.91511" lon="0.77476">
        <ele>244.79</ele>
        <time>2017-07-03T13:47:55Z</time>
      </trkpt>
      <trkpt lat="45.91545" lon="0.77535">
        <ele>243.83</ele>
        <time>2017-07-03T13:48:11Z</time>
      </trkpt>
      <trkpt lat="45.9158" lon="0.77593">
        <ele>242.87</ele>
        <time>2017-07-03T13:48:27Z</time>
      </trkpt>
      <trkpt lat="45.91604" lon="0.77664">
        <ele>242.39</ele>
        <time>2017-07-03T13:48:44Z</time>
      </trkpt>
      <trkpt lat="45.91607" lon="0.77767">
        <ele>243.35</ele>
        <time>2017-07-03T13:49:07Z</time>
      </trkpt>
      <trkpt lat="45.91603" lon="0.77862">
        <ele>244.31</ele>
        <time>2017-07-03T13:49:31Z</time>
      </trkpt>
      <trkpt lat="45.91603" lon="0.77874">
        <ele>244.79</ele>
        <time>2017-07-03T13:49:34Z</time>
      </trkpt>
      <trkpt lat="45.91583" lon="0.77948">
        <ele>244.31</ele>
        <time>2017-07-03T13:49:52Z</time>
      </trkpt>
      <trkpt lat="45.91559" lon="0.78035">
        <ele>244.31</ele>
        <time>2017-07-03T13:50:12Z</time>
      </trkpt>
      <trkpt lat="45.91539" lon="0.78097">
        <ele>245.27</ele>
        <time>2017-07-03T13:50:28Z</time>
      </trkpt>
      <trkpt lat="45.91513" lon="0.78204">
        <ele>245.75</ele>
        <time>2017-07-03T13:50:51Z</time>
      </trkpt>
      <trkpt lat="45.9149" lon="0.78294">
        <ele>246.23</ele>
        <time>2017-07-03T13:51:11Z</time>
      </trkpt>
      <trkpt lat="45.91478" lon="0.78366">
        <ele>246.72</ele>
        <time>2017-07-03T13:51:28Z</time>
      </trkpt>
      <trkpt lat="45.91476" lon="0.78437">
        <ele>247.2</ele>
        <time>2017-07-03T13:51:44Z</time>
      </trkpt>
      <trkpt lat="45.91474" lon="0.78464">
        <ele>247.2</ele>
        <time>2017-07-03T13:52:06Z</time>
      </trkpt>
      <trkpt lat="45.91466" lon="0.78511">
        <ele>248.64</ele>
        <time>2017-07-03T13:52:19Z</time>
      </trkpt>
      <trkpt lat="45.91448" lon="0.78573">
        <ele>249.12</ele>
        <time>2017-07-03T13:52:37Z</time>
      </trkpt>
      <trkpt lat="45.91424" lon="0.78643">
        <ele>251.52</ele>
        <time>2017-07-03T13:52:58Z</time>
      </trkpt>
      <trkpt lat="45.91385" lon="0.78762">
        <ele>254.41</ele>
        <time>2017-07-03T13:53:29Z</time>
      </trkpt>
      <trkpt lat="45.91347" lon="0.78865">
        <ele>254.89</ele>
        <time>2017-07-03T13:53:57Z</time>
      </trkpt>
      <trkpt lat="45.9131" lon="0.78959">
        <ele>257.29</ele>
        <time>2017-07-03T13:54:20Z</time>
      </trkpt>
      <trkpt lat="45.91284" lon="0.79031">
        <ele>258.25</ele>
        <time>2017-07-03T13:54:39Z</time>
      </trkpt>
      <trkpt lat="45.91271" lon="0.79087">
        <ele>259.69</ele>
        <time>2017-07-03T13:54:56Z</time>
      </trkpt>
      <trkpt lat="45.9126" lon="0.79155">
        <ele>258.25</ele>
        <time>2017-07-03T13:55:17Z</time>
      </trkpt>
      <trkpt lat="45.91238" lon="0.79214">
        <ele>257.29</ele>
        <time>2017-07-03T13:55:34Z</time>
      </trkpt>
      <trkpt lat="45.91219" lon="0.79296">
        <ele>259.69</ele>
        <time>2017-07-03T13:55:56Z</time>
      </trkpt>
      <trkpt lat="45.91197" lon="0.79396">
        <ele>261.14</ele>
        <time>2017-07-03T13:56:22Z</time>
      </trkpt>
      <trkpt lat="45.91172" lon="0.79431">
        <ele>261.62</ele>
        <time>2017-07-03T13:56:40Z</time>
      </trkpt>
      <trkpt lat="45.91164" lon="0.79559">
        <ele>275.996887</ele>
        <time>2017-07-03T13:56:48Z</time>
      </trkpt>
      <trkpt lat="45.91121" lon="0.79702">
        <ele>275.795837</ele>
        <time>2017-07-03T13:56:52Z</time>
      </trkpt>
      <trkpt lat="45.91077" lon="0.79826">
        <ele>274.818115</ele>
        <time>2017-07-03T13:57:01Z</time>
      </trkpt>
      <trkpt lat="45.91009" lon="0.79928">
        <ele>264.98</ele>
        <time>2017-07-03T14:10:06Z</time>
      </trkpt>
      <trkpt lat="45.91008" lon="0.79929">
        <ele>264.98</ele>
        <time>2017-07-03T14:10:07Z</time>
      </trkpt>
      <trkpt lat="45.90994" lon="0.79957">
        <ele>264.02</ele>
        <time>2017-07-03T14:10:26Z</time>
      </trkpt>
      <trkpt lat="45.90989" lon="0.79967">
        <ele>264.02</ele>
        <time>2017-07-03T14:10:52Z</time>
      </trkpt>
      <trkpt lat="45.90987" lon="0.80009">
        <ele>273.752075</ele>
        <time>2017-07-03T14:11:19Z</time>
      </trkpt>
      <trkpt lat="45.90996" lon="0.80034">
        <ele>272.990479</ele>
        <time>2017-07-03T14:11:51Z</time>
      </trkpt>
      <trkpt lat="45.90993" lon="0.80144">
        <ele>272.448364</ele>
        <time>2017-07-03T14:12:14Z</time>
      </trkpt>
      <trkpt lat="45.90985" lon="0.80246">
        <ele>262.1</ele>
        <time>2017-07-03T14:12:35Z</time>
      </trkpt>
      <trkpt lat="45.90987" lon="0.80251">
        <ele>261.62</ele>
        <time>2017-07-03T14:12:36Z</time>
      </trkpt>
      <trkpt lat="45.90988" lon="0.80255">
        <ele>261.14</ele>
        <time>2017-07-03T14:12:37Z</time>
      </trkpt>
      <trkpt lat="45.90989" lon="0.80259">
        <ele>260.65</ele>
        <time>2017-07-03T14:12:38Z</time>
      </trkpt>
      <trkpt lat="45.90999" lon="0.80285">
        <ele>259.69</ele>
        <time>2017-07-03T14:12:53Z</time>
      </trkpt>
      <trkpt lat="45.91005" lon="0.80323">
        <ele>259.69</ele>
        <time>2017-07-03T14:13:11Z</time>
      </trkpt>
      <trkpt lat="45.91018" lon="0.80411">
        <ele>261.14</ele>
        <time>2017-07-03T14:13:33Z</time>
      </trkpt>
      <trkpt lat="45.91026" lon="0.8048">
        <ele>264.02</ele>
        <time>2017-07-03T14:13:51Z</time>
      </trkpt>
      <trkpt lat="45.91027" lon="0.80484">
        <ele>264.02</ele>
        <time>2017-07-03T14:13:52Z</time>
      </trkpt>
      <trkpt lat="45.91009" lon="0.80586">
        <ele>262.58</ele>
        <time>2017-07-03T14:14:12Z</time>
      </trkpt>
      <trkpt lat="45.9102" lon="0.807">
        <ele>261.62</ele>
        <time>2017-07-03T14:14:32Z</time>
      </trkpt>
      <trkpt lat="45.91032" lon="0.80771">
        <ele>260.17</ele>
        <time>2017-07-03T14:14:48Z</time>
      </trkpt>
      <trkpt lat="45.91037" lon="0.80846">
        <ele>260.17</ele>
        <time>2017-07-03T14:15:10Z</time>
      </trkpt>
      <trkpt lat="45.91044" lon="0.80911">
        <ele>260.65</ele>
        <time>2017-07-03T14:15:25Z</time>
      </trkpt>
      <trkpt lat="45.91045" lon="0.80964">
        <ele>261.62</ele>
        <time>2017-07-03T14:15:38Z</time>
      </trkpt>
      <trkpt lat="45.91041" lon="0.80995">
        <ele>262.58</ele>
        <time>2017-07-03T14:15:45Z</time>
      </trkpt>
      <trkpt lat="45.91034" lon="0.81061">
        <ele>262.58</ele>
        <time>2017-07-03T14:16:02Z</time>
      </trkpt>
      <trkpt lat="45.91031" lon="0.81098">
        <ele>262.58</ele>
        <time>2017-07-03T14:16:12Z</time>
      </trkpt>
      <trkpt lat="45.91028" lon="0.81111">
        <ele>263.06</ele>
        <time>2017-07-03T14:16:16Z</time>
      </trkpt>
      <trkpt lat="45.91028" lon="0.81119">
        <ele>262.58</ele>
        <time>2017-07-03T14:16:19Z</time>
      </trkpt>
      <trkpt lat="45.91028" lon="0.81121">
        <ele>262.58</ele>
        <time>2017-07-03T14:16:20Z</time>
      </trkpt>
      <trkpt lat="45.9102" lon="0.81165">
        <ele>263.06</ele>
        <time>2017-07-03T14:16:32Z</time>
      </trkpt>
      <trkpt lat="45.9102" lon="0.81169">
        <ele>263.06</ele>
        <time>2017-07-03T14:16:33Z</time>
      </trkpt>
      <trkpt lat="45.91019" lon="0.81186">
        <ele>264.02</ele>
        <time>2017-07-03T14:16:38Z</time>
      </trkpt>
      <trkpt lat="45.91009" lon="0.81245">
        <ele>263.54</ele>
        <time>2017-07-03T14:16:55Z</time>
      </trkpt>
      <trkpt lat="45.91009" lon="0.81247">
        <ele>264.02</ele>
        <time>2017-07-03T14:16:56Z</time>
      </trkpt>
      <trkpt lat="45.91008" lon="0.81257">
        <ele>264.5</ele>
        <time>2017-07-03T14:17:06Z</time>
      </trkpt>
      <trkpt lat="45.91008" lon="0.81259">
        <ele>264.02</ele>
        <time>2017-07-03T14:17:07Z</time>
      </trkpt>
      <trkpt lat="45.91008" lon="0.81271">
        <ele>264.02</ele>
        <time>2017-07-03T14:17:13Z</time>
      </trkpt>
      <trkpt lat="45.9101" lon="0.81277">
        <ele>264.5</ele>
        <time>2017-07-03T14:17:16Z</time>
      </trkpt>
      <trkpt lat="45.9101" lon="0.81278">
        <ele>264.02</ele>
        <time>2017-07-03T14:17:17Z</time>
      </trkpt>
      <trkpt lat="45.91009" lon="0.8128">
        <ele>264.02</ele>
        <time>2017-07-03T14:17:18Z</time>
      </trkpt>
      <trkpt lat="45.91008" lon="0.81281">
        <ele>264.02</ele>
        <time>2017-07-03T14:17:19Z</time>
      </trkpt>
      <trkpt lat="45.91007" lon="0.81282">
        <ele>264.5</ele>
        <time>2017-07-03T14:17:20Z</time>
      </trkpt>
      <trkpt lat="45.91007" lon="0.81287">
        <ele>264.5</ele>
        <time>2017-07-03T14:17:30Z</time>
      </trkpt>
      <trkpt lat="45.91007" lon="0.81289">
        <ele>264.5</ele>
        <time>2017-07-03T14:17:31Z</time>
      </trkpt>
      <trkpt lat="45.91002" lon="0.81338">
        <ele>265.94</ele>
        <time>2017-07-03T14:17:45Z</time>
      </trkpt>
      <trkpt lat="45.91003" lon="0.81343">
        <ele>265.94</ele>
        <time>2017-07-03T14:17:47Z</time>
      </trkpt>
      <trkpt lat="45.91003" lon="0.81347">
        <ele>265.94</ele>
        <time>2017-07-03T14:17:48Z</time>
      </trkpt>
      <trkpt lat="45.91003" lon="0.8135">
        <ele>265.94</ele>
        <time>2017-07-03T14:17:49Z</time>
      </trkpt>
      <trkpt lat="45.91003" lon="0.81354">
        <ele>265.46</ele>
        <time>2017-07-03T14:17:50Z</time>
      </trkpt>
      <trkpt lat="45.91003" lon="0.81358">
        <ele>265.94</ele>
        <time>2017-07-03T14:17:51Z</time>
      </trkpt>
      <trkpt lat="45.91002" lon="0.81367">
        <ele>265.46</ele>
        <time>2017-07-03T14:17:53Z</time>
      </trkpt>
      <trkpt lat="45.90966" lon="0.8144">
        <ele>265.46</ele>
        <time>2017-07-03T14:18:09Z</time>
      </trkpt>
      <trkpt lat="45.90958" lon="0.81454">
        <ele>264.98</ele>
        <time>2017-07-03T14:18:12Z</time>
      </trkpt>
      <trkpt lat="45.90917" lon="0.81539">
        <ele>264.02</ele>
        <time>2017-07-03T14:18:31Z</time>
      </trkpt>
      <trkpt lat="45.90895" lon="0.81578">
        <ele>264.98</ele>
        <time>2017-07-03T14:18:48Z</time>
      </trkpt>
      <trkpt lat="45.90894" lon="0.81578">
        <ele>264.5</ele>
        <time>2017-07-03T14:18:51Z</time>
      </trkpt>
      <trkpt lat="45.90893" lon="0.81581">
        <ele>264.98</ele>
        <time>2017-07-03T14:18:52Z</time>
      </trkpt>
      <trkpt lat="45.9086" lon="0.81648">
        <ele>267.38</ele>
        <time>2017-07-03T14:19:10Z</time>
      </trkpt>
      <trkpt lat="45.90842" lon="0.81794">
        <ele>265.46</ele>
        <time>2017-07-03T14:19:35Z</time>
      </trkpt>
      <trkpt lat="45.90825" lon="0.81879">
        <ele>261.62</ele>
        <time>2017-07-03T14:19:48Z</time>
      </trkpt>
      <trkpt lat="45.90821" lon="0.81891">
        <ele>262.1</ele>
        <time>2017-07-03T14:19:50Z</time>
      </trkpt>
      <trkpt lat="45.90744" lon="0.82046">
        <ele>260.17</ele>
        <time>2017-07-03T14:20:18Z</time>
      </trkpt>
      <trkpt lat="45.90671" lon="0.82152">
        <ele>258.73</ele>
        <time>2017-07-03T14:20:44Z</time>
      </trkpt>
      <trkpt lat="45.90645" lon="0.82272">
        <ele>255.37</ele>
        <time>2017-07-03T14:21:03Z</time>
      </trkpt>
      <trkpt lat="45.90635" lon="0.82352">
        <ele>252</ele>
        <time>2017-07-03T14:21:15Z</time>
      </trkpt>
      <trkpt lat="45.90631" lon="0.8238">
        <ele>250.56</ele>
        <time>2017-07-03T14:21:19Z</time>
      </trkpt>
      <trkpt lat="45.90623" lon="0.82425">
        <ele>248.16</ele>
        <time>2017-07-03T14:21:25Z</time>
      </trkpt>
      <trkpt lat="45.90612" lon="0.8248">
        <ele>244.79</ele>
        <time>2017-07-03T14:21:31Z</time>
      </trkpt>
      <trkpt lat="45.90584" lon="0.82616">
        <ele>241.91</ele>
        <time>2017-07-03T14:21:47Z</time>
      </trkpt>
      <trkpt lat="45.9057" lon="0.8269">
        <ele>240.95</ele>
        <time>2017-07-03T14:21:58Z</time>
      </trkpt>
      <trkpt lat="45.90561" lon="0.82722">
        <ele>241.43</ele>
        <time>2017-07-03T14:22:07Z</time>
      </trkpt>
      <trkpt lat="45.90562" lon="0.82724">
        <ele>240.95</ele>
        <time>2017-07-03T14:22:08Z</time>
      </trkpt>
      <trkpt lat="45.90544" lon="0.82778">
        <ele>239.51</ele>
        <time>2017-07-03T14:22:26Z</time>
      </trkpt>
      <trkpt lat="45.9053" lon="0.82827">
        <ele>237.58</ele>
        <time>2017-07-03T14:22:42Z</time>
      </trkpt>
      <trkpt lat="45.90517" lon="0.8289">
        <ele>234.22</ele>
        <time>2017-07-03T14:23:00Z</time>
      </trkpt>
      <trkpt lat="45.90489" lon="0.82929">
        <ele>230.85</ele>
        <time>2017-07-03T14:23:14Z</time>
      </trkpt>
      <trkpt lat="45.90457" lon="0.82978">
        <ele>228.93</ele>
        <time>2017-07-03T14:23:34Z</time>
      </trkpt>
      <trkpt lat="45.90435" lon="0.83039">
        <ele>225.57</ele>
        <time>2017-07-03T14:23:58Z</time>
      </trkpt>
      <trkpt lat="45.90407" lon="0.83099">
        <ele>223.64</ele>
        <time>2017-07-03T14:24:20Z</time>
      </trkpt>
      <trkpt lat="45.90404" lon="0.83117">
        <ele>223.64</ele>
        <time>2017-07-03T14:24:42Z</time>
      </trkpt>
      <trkpt lat="45.90398" lon="0.83158">
        <ele>225.09</ele>
        <time>2017-07-03T14:25:32Z</time>
      </trkpt>
      <trkpt lat="45.90385" lon="0.83209">
        <ele>227.97</ele>
        <time>2017-07-03T14:25:45Z</time>
      </trkpt>
      <trkpt lat="45.90363" lon="0.8327">
        <ele>231.81</ele>
        <time>2017-07-03T14:25:59Z</time>
      </trkpt>
      <trkpt lat="45.90354" lon="0.83317">
        <ele>233.26</ele>
        <time>2017-07-03T14:26:12Z</time>
      </trkpt>
      <trkpt lat="45.9035" lon="0.83332">
        <ele>233.26</ele>
        <time>2017-07-03T14:26:38Z</time>
      </trkpt>
      <trkpt lat="45.90324" lon="0.83414">
        <ele>231.81</ele>
        <time>2017-07-03T14:26:58Z</time>
      </trkpt>
      <trkpt lat="45.90307" lon="0.8346">
        <ele>228.93</ele>
        <time>2017-07-03T14:27:09Z</time>
      </trkpt>
      <trkpt lat="45.90297" lon="0.83487">
        <ele>227.01</ele>
        <time>2017-07-03T14:27:34Z</time>
      </trkpt>
      <trkpt lat="45.90296" lon="0.83489">
        <ele>227.01</ele>
        <time>2017-07-03T14:27:50Z</time>
      </trkpt>
      <trkpt lat="45.90292" lon="0.8353">
        <ele>224.12</ele>
        <time>2017-07-03T14:28:08Z</time>
      </trkpt>
      <trkpt lat="45.90291" lon="0.83536">
        <ele>223.64</ele>
        <time>2017-07-03T14:28:12Z</time>
      </trkpt>
      <trkpt lat="45.9029" lon="0.83538">
        <ele>223.64</ele>
        <time>2017-07-03T14:28:14Z</time>
      </trkpt>
      <trkpt lat="45.90285" lon="0.83565">
        <ele>220.28</ele>
        <time>2017-07-03T14:28:36Z</time>
      </trkpt>
      <trkpt lat="45.9028" lon="0.83594">
        <ele>217.88</ele>
        <time>2017-07-03T14:28:53Z</time>
      </trkpt>
      <trkpt lat="45.90278" lon="0.83605">
        <ele>217.4</ele>
        <time>2017-07-03T14:28:57Z</time>
      </trkpt>
      <trkpt lat="45.90278" lon="0.83615">
        <ele>216.43</ele>
        <time>2017-07-03T14:29:01Z</time>
      </trkpt>
      <trkpt lat="45.90278" lon="0.83639">
        <ele>214.99</ele>
        <time>2017-07-03T14:29:10Z</time>
      </trkpt>
      <trkpt lat="45.90276" lon="0.83687">
        <ele>215.47</ele>
        <time>2017-07-03T14:29:27Z</time>
      </trkpt>
      <trkpt lat="45.90255" lon="0.83756">
        <ele>218.36</ele>
        <time>2017-07-03T14:29:49Z</time>
      </trkpt>
      <trkpt lat="45.9024" lon="0.83811">
        <ele>221.72</ele>
        <time>2017-07-03T14:30:04Z</time>
      </trkpt>
      <trkpt lat="45.90223" lon="0.83875">
        <ele>225.09</ele>
        <time>2017-07-03T14:30:23Z</time>
      </trkpt>
      <trkpt lat="45.90217" lon="0.83913">
        <ele>225.09</ele>
        <time>2017-07-03T14:31:04Z</time>
      </trkpt>
      <trkpt lat="45.90214" lon="0.8393">
        <ele>225.09</ele>
        <time>2017-07-03T14:31:22Z</time>
      </trkpt>
      <trkpt lat="45.90196" lon="0.83991">
        <ele>225.57</ele>
        <time>2017-07-03T14:31:44Z</time>
      </trkpt>
      <trkpt lat="45.9019" lon="0.84012">
        <ele>226.05</ele>
        <time>2017-07-03T14:32:06Z</time>
      </trkpt>
      <trkpt lat="45.90184" lon="0.84037">
        <ele>226.53</ele>
        <time>2017-07-03T14:32:24Z</time>
      </trkpt>
      <trkpt lat="45.90176" lon="0.84064">
        <ele>227.01</ele>
        <time>2017-07-03T14:32:47Z</time>
      </trkpt>
      <trkpt lat="45.90171" lon="0.84082">
        <ele>228.93</ele>
        <time>2017-07-03T14:33:11Z</time>
      </trkpt>
      <trkpt lat="45.90164" lon="0.84123">
        <ele>229.89</ele>
        <time>2017-07-03T14:33:38Z</time>
      </trkpt>
      <trkpt lat="45.90162" lon="0.84132">
        <ele>230.37</ele>
        <time>2017-07-03T14:33:44Z</time>
      </trkpt>
      <trkpt lat="45.90159" lon="0.84138">
        <ele>230.85</ele>
        <time>2017-07-03T14:33:48Z</time>
      </trkpt>
      <trkpt lat="45.90157" lon="0.84156">
        <ele>230.85</ele>
        <time>2017-07-03T14:33:59Z</time>
      </trkpt>
      <trkpt lat="45.9015" lon="0.84197">
        <ele>232.78</ele>
        <time>2017-07-03T14:34:28Z</time>
      </trkpt>
      <trkpt lat="45.9015" lon="0.84228">
        <ele>234.22</ele>
        <time>2017-07-03T14:34:51Z</time>
      </trkpt>
      <trkpt lat="45.90152" lon="0.8425">
        <ele>235.18</ele>
        <time>2017-07-03T14:35:17Z</time>
      </trkpt>
      <trkpt lat="45.90158" lon="0.84309">
        <ele>236.14</ele>
        <time>2017-07-03T14:35:49Z</time>
      </trkpt>
      <trkpt lat="45.9016" lon="0.84347">
        <ele>236.14</ele>
        <time>2017-07-03T14:36:22Z</time>
      </trkpt>
      <trkpt lat="45.90164" lon="0.84431">
        <ele>235.66</ele>
        <time>2017-07-03T14:37:06Z</time>
      </trkpt>
      <trkpt lat="45.90168" lon="0.84464">
        <ele>236.62</ele>
        <time>2017-07-03T14:37:36Z</time>
      </trkpt>
      <trkpt lat="45.90167" lon="0.84466">
        <ele>236.62</ele>
        <time>2017-07-03T14:40:59Z</time>
      </trkpt>
      <trkpt lat="45.90168" lon="0.84469">
        <ele>237.1</ele>
        <time>2017-07-03T14:41:05Z</time>
      </trkpt>
      <trkpt lat="45.90183" lon="0.84539">
        <ele>238.06</ele>
        <time>2017-07-03T14:41:24Z</time>
      </trkpt>
      <trkpt lat="45.9022" lon="0.84636">
        <ele>239.02</ele>
        <time>2017-07-03T14:41:52Z</time>
      </trkpt>
      <trkpt lat="45.90216" lon="0.84709">
        <ele>236.62</ele>
        <time>2017-07-03T14:42:09Z</time>
      </trkpt>
      <trkpt lat="45.90251" lon="0.84783">
        <ele>234.22</ele>
        <time>2017-07-03T14:42:31Z</time>
      </trkpt>
      <trkpt lat="45.9026" lon="0.84792">
        <ele>233.74</ele>
        <time>2017-07-03T14:42:51Z</time>
      </trkpt>
      <trkpt lat="45.90274" lon="0.84827">
        <ele>231.81</ele>
        <time>2017-07-03T14:43:10Z</time>
      </trkpt>
      <trkpt lat="45.90301" lon="0.84924">
        <ele>231.33</ele>
        <time>2017-07-03T14:43:35Z</time>
      </trkpt>
      <trkpt lat="45.90306" lon="0.84981">
        <ele>229.89</ele>
        <time>2017-07-03T14:43:57Z</time>
      </trkpt>
      <trkpt lat="45.90306" lon="0.85018">
        <ele>231.81</ele>
        <time>2017-07-03T14:46:49Z</time>
      </trkpt>
      <trkpt lat="45.90319" lon="0.85076">
        <ele>234.7</ele>
        <time>2017-07-03T14:47:06Z</time>
      </trkpt>
      <trkpt lat="45.90342" lon="0.85195">
        <ele>234.7</ele>
        <time>2017-07-03T14:47:36Z</time>
      </trkpt>
      <trkpt lat="45.90353" lon="0.8528">
        <ele>232.78</ele>
        <time>2017-07-03T14:47:59Z</time>
      </trkpt>
      <trkpt lat="45.90351" lon="0.85292">
        <ele>234.22</ele>
        <time>2017-07-03T14:48:02Z</time>
      </trkpt>
      <trkpt lat="45.90371" lon="0.85366">
        <ele>236.14</ele>
        <time>2017-07-03T14:48:24Z</time>
      </trkpt>
      <trkpt lat="45.90405" lon="0.85446">
        <ele>238.06</ele>
        <time>2017-07-03T14:48:50Z</time>
      </trkpt>
      <trkpt lat="45.9042" lon="0.85456">
        <ele>238.06</ele>
        <time>2017-07-03T14:48:57Z</time>
      </trkpt>
      <trkpt lat="45.90423" lon="0.85462">
        <ele>238.54</ele>
        <time>2017-07-03T14:49:22Z</time>
      </trkpt>
      <trkpt lat="45.90423" lon="0.85463">
        <ele>239.02</ele>
        <time>2017-07-03T14:49:28Z</time>
      </trkpt>
      <trkpt lat="45.90413" lon="0.8547">
        <ele>239.02</ele>
        <time>2017-07-03T14:49:33Z</time>
      </trkpt>
      <trkpt lat="45.90325" lon="0.85508">
        <ele>238.06</ele>
        <time>2017-07-03T14:49:57Z</time>
      </trkpt>
      <trkpt lat="45.90244" lon="0.85565">
        <ele>235.18</ele>
        <time>2017-07-03T14:50:15Z</time>
      </trkpt>
      <trkpt lat="45.9031" lon="0.85518">
        <ele>285.65</ele>
        <time>2017-07-03T14:52:04Z</time>
      </trkpt>
      <trkpt lat="45.90049" lon="0.85761">
        <ele>222.6492</ele>
        <time>2017-07-03T14:52:13Z</time>
      </trkpt>
      <trkpt lat="45.90002" lon="0.85817">
        <ele>131.36</ele>
        <time>2017-07-03T14:53:07Z</time>
      </trkpt>
      <trkpt lat="45.90001" lon="0.85817">
        <ele>134.24</ele>
        <time>2017-07-03T14:53:25Z</time>
      </trkpt>
      <trkpt lat="45.90001" lon="0.85817">
        <ele>137.61</ele>
        <time>2017-07-03T14:53:26Z</time>
      </trkpt>
      <trkpt lat="45.90001" lon="0.85817">
        <ele>143.37</ele>
        <time>2017-07-03T14:53:28Z</time>
      </trkpt>
      <trkpt lat="45.90001" lon="0.85817">
        <ele>148.66</ele>
        <time>2017-07-03T14:53:30Z</time>
      </trkpt>
      <trkpt lat="45.90001" lon="0.85817">
        <ele>153.47</ele>
        <time>2017-07-03T14:53:32Z</time>
      </trkpt>
      <trkpt lat="45.90001" lon="0.85817">
        <ele>158.27</ele>
        <time>2017-07-03T14:53:34Z</time>
      </trkpt>
      <trkpt lat="45.90001" lon="0.85817">
        <ele>162.12</ele>
        <time>2017-07-03T14:53:36Z</time>
      </trkpt>
      <trkpt lat="45.90001" lon="0.85817">
        <ele>165.96</ele>
        <time>2017-07-03T14:53:38Z</time>
      </trkpt>
      <trkpt lat="45.90001" lon="0.85817">
        <ele>169.81</ele>
        <time>2017-07-03T14:53:40Z</time>
      </trkpt>
      <trkpt lat="45.90001" lon="0.85817">
        <ele>173.66</ele>
        <time>2017-07-03T14:53:42Z</time>
      </trkpt>
      <trkpt lat="45.90001" lon="0.85817">
        <ele>176.54</ele>
        <time>2017-07-03T14:53:44Z</time>
      </trkpt>
      <trkpt lat="45.90001" lon="0.85817">
        <ele>181.35</ele>
        <time>2017-07-03T14:53:47Z</time>
      </trkpt>
      <trkpt lat="45.90001" lon="0.85817">
        <ele>185.19</ele>
        <time>2017-07-03T14:53:50Z</time>
      </trkpt>
      <trkpt lat="45.90002" lon="0.85817">
        <ele>189.04</ele>
        <time>2017-07-03T14:53:53Z</time>
      </trkpt>
      <trkpt lat="45.90002" lon="0.85817">
        <ele>192.4</ele>
        <time>2017-07-03T14:53:56Z</time>
      </trkpt>
      <trkpt lat="45.90002" lon="0.85817">
        <ele>195.77</ele>
        <time>2017-07-03T14:54:00Z</time>
      </trkpt>
      <trkpt lat="45.90002" lon="0.85817">
        <ele>199.13</ele>
        <time>2017-07-03T14:54:03Z</time>
      </trkpt>
      <trkpt lat="45.90002" lon="0.85817">
        <ele>202.49</ele>
        <time>2017-07-03T14:54:08Z</time>
      </trkpt>
      <trkpt lat="45.90002" lon="0.85817">
        <ele>202.98</ele>
        <time>2017-07-03T14:54:09Z</time>
      </trkpt>
      <trkpt lat="45.90002" lon="0.85817">
        <ele>205.86</ele>
        <time>2017-07-03T14:54:13Z</time>
      </trkpt>
      <trkpt lat="45.90002" lon="0.85817">
        <ele>206.34</ele>
        <time>2017-07-03T14:54:14Z</time>
      </trkpt>
      <trkpt lat="45.90002" lon="0.85817">
        <ele>209.7</ele>
        <time>2017-07-03T14:54:20Z</time>
      </trkpt>
      <trkpt lat="45.90002" lon="0.85817">
        <ele>211.63</ele>
        <time>2017-07-03T14:54:24Z</time>
      </trkpt>
      <trkpt lat="45.90002" lon="0.85817">
        <ele>213.07</ele>
        <time>2017-07-03T14:54:29Z</time>
      </trkpt>
      <trkpt lat="45.90001" lon="0.85817">
        <ele>216.43</ele>
        <time>2017-07-03T14:54:39Z</time>
      </trkpt>
      <trkpt lat="45.90002" lon="0.85817">
        <ele>219.32</ele>
        <time>2017-07-03T14:54:57Z</time>
      </trkpt>
      <trkpt lat="45.90001" lon="0.85817">
        <ele>222.2</ele>
        <time>2017-07-03T14:55:27Z</time>
      </trkpt>
      <trkpt lat="45.9" lon="0.85819">
        <ele>221.72</ele>
        <time>2017-07-03T14:56:06Z</time>
      </trkpt>
      <trkpt lat="45.8997" lon="0.85891">
        <ele>219.32</ele>
        <time>2017-07-03T14:56:25Z</time>
      </trkpt>
      <trkpt lat="45.89949" lon="0.85963">
        <ele>215.47</ele>
        <time>2017-07-03T14:56:35Z</time>
      </trkpt>
      <trkpt lat="45.89936" lon="0.86005">
        <ele>212.59</ele>
        <time>2017-07-03T14:56:40Z</time>
      </trkpt>
      <trkpt lat="45.89934" lon="0.86013">
        <ele>212.11</ele>
        <time>2017-07-03T14:56:41Z</time>
      </trkpt>
      <trkpt lat="45.89895" lon="0.86144">
        <ele>212.11</ele>
        <time>2017-07-03T14:56:57Z</time>
      </trkpt>
      <trkpt lat="45.89883" lon="0.86203">
        <ele>214.03</ele>
        <time>2017-07-03T14:57:06Z</time>
      </trkpt>
      <trkpt lat="45.89881" lon="0.86209">
        <ele>214.51</ele>
        <time>2017-07-03T14:57:07Z</time>
      </trkpt>
      <trkpt lat="45.89871" lon="0.86232">
        <ele>216.43</ele>
        <time>2017-07-03T14:57:11Z</time>
      </trkpt>
      <trkpt lat="45.89867" lon="0.86237">
        <ele>216.43</ele>
        <time>2017-07-03T14:57:12Z</time>
      </trkpt>
      <trkpt lat="45.89832" lon="0.86277">
        <ele>219.8</ele>
        <time>2017-07-03T14:57:23Z</time>
      </trkpt>
      <trkpt lat="45.89794" lon="0.86322">
        <ele>223.16</ele>
        <time>2017-07-03T14:57:35Z</time>
      </trkpt>
      <trkpt lat="45.89769" lon="0.8638">
        <ele>226.05</ele>
        <time>2017-07-03T14:57:49Z</time>
      </trkpt>
      <trkpt lat="45.89737" lon="0.86469">
        <ele>229.41</ele>
        <time>2017-07-03T14:58:11Z</time>
      </trkpt>
      <trkpt lat="45.89707" lon="0.86551">
        <ele>232.3</ele>
        <time>2017-07-03T14:58:28Z</time>
      </trkpt>
      <trkpt lat="45.89679" lon="0.86623">
        <ele>235.66</ele>
        <time>2017-07-03T14:58:43Z</time>
      </trkpt>
      <trkpt lat="45.89645" lon="0.86717">
        <ele>238.54</ele>
        <time>2017-07-03T14:59:02Z</time>
      </trkpt>
      <trkpt lat="45.89628" lon="0.86752">
        <ele>234.425003</ele>
        <time>2017-07-03T14:59:28Z</time>
      </trkpt>
      <trkpt lat="45.89542" lon="0.86712">
        <ele>231.145828</ele>
        <time>2017-07-03T14:59:46Z</time>
      </trkpt>
      <trkpt lat="45.89483" lon="0.86701">
        <ele>228.545837</ele>
        <time>2017-07-03T15:00:03Z</time>
      </trkpt>
      <trkpt lat="45.89459" lon="0.86711">
        <ele>227.375992</ele>
        <time>2017-07-03T15:00:20Z</time>
      </trkpt>
      <trkpt lat="45.89441" lon="0.86734">
        <ele>226.238174</ele>
        <time>2017-07-03T15:00:45Z</time>
      </trkpt>
      <trkpt lat="45.89394" lon="0.86774">
        <ele>223.34375</ele>
        <time>2017-07-03T15:01:09Z</time>
      </trkpt>
      <trkpt lat="45.89339" lon="0.86879">
        <ele>217.482956</ele>
        <time>2017-07-03T15:01:22Z</time>
      </trkpt>
      <trkpt lat="45.89314" lon="0.87028">
        <ele>218.531845</ele>
        <time>2017-07-03T15:01:28Z</time>
      </trkpt>
      <trkpt lat="45.89318" lon="0.87163">
        <ele>221.945831</ele>
        <time>2017-07-03T15:01:32Z</time>
      </trkpt>
      <trkpt lat="45.89322" lon="0.87256">
        <ele>222.045837</ele>
        <time>2017-07-03T15:01:39Z</time>
      </trkpt>
      <trkpt lat="45.89279" lon="0.87563">
        <ele>214.440536</ele>
        <time>2017-07-03T15:01:46Z</time>
      </trkpt>
      <trkpt lat="45.89238" lon="0.87928">
        <ele>203.952057</ele>
        <time>2017-07-03T15:02:00Z</time>
      </trkpt>
      <trkpt lat="45.89255" lon="0.88006">
        <ele>205.38</ele>
        <time>2017-07-03T15:02:08Z</time>
      </trkpt>
      <trkpt lat="45.89254" lon="0.88013">
        <ele>205.38</ele>
        <time>2017-07-03T15:02:09Z</time>
      </trkpt>
      <trkpt lat="45.89254" lon="0.88055">
        <ele>203.94</ele>
        <time>2017-07-03T15:02:15Z</time>
      </trkpt>
      <trkpt lat="45.89256" lon="0.88084">
        <ele>202.49</ele>
        <time>2017-07-03T15:02:31Z</time>
      </trkpt>
      <trkpt lat="45.89249" lon="0.88143">
        <ele>200.57</ele>
        <time>2017-07-03T15:02:56Z</time>
      </trkpt>
      <trkpt lat="45.89236" lon="0.88188">
        <ele>198.17</ele>
        <time>2017-07-03T15:03:05Z</time>
      </trkpt>
      <trkpt lat="45.89211" lon="0.88268">
        <ele>194.8</ele>
        <time>2017-07-03T15:03:21Z</time>
      </trkpt>
      <trkpt lat="45.89188" lon="0.88338">
        <ele>191.44</ele>
        <time>2017-07-03T15:03:36Z</time>
      </trkpt>
      <trkpt lat="45.89166" lon="0.88377">
        <ele>188.56</ele>
        <time>2017-07-03T15:03:41Z</time>
      </trkpt>
      <trkpt lat="45.89141" lon="0.8842">
        <ele>185.67</ele>
        <time>2017-07-03T15:03:54Z</time>
      </trkpt>
      <trkpt lat="45.89124" lon="0.88473">
        <ele>182.31</ele>
        <time>2017-07-03T15:04:08Z</time>
      </trkpt>
      <trkpt lat="45.89112" lon="0.88529">
        <ele>178.94</ele>
        <time>2017-07-03T15:04:20Z</time>
      </trkpt>
      <trkpt lat="45.89076" lon="0.88624">
        <ele>176.06</ele>
        <time>2017-07-03T15:04:45Z</time>
      </trkpt>
      <trkpt lat="45.89062" lon="0.88681">
        <ele>173.66</ele>
        <time>2017-07-03T15:05:02Z</time>
      </trkpt>
      <trkpt lat="45.89068" lon="0.88697">
        <ele>172.69</ele>
        <time>2017-07-03T15:05:08Z</time>
      </trkpt>
      <trkpt lat="45.89067" lon="0.887">
        <ele>172.69</ele>
        <time>2017-07-03T15:05:09Z</time>
      </trkpt>
      <trkpt lat="45.89067" lon="0.88702">
        <ele>172.69</ele>
        <time>2017-07-03T15:05:10Z</time>
      </trkpt>
      <trkpt lat="45.89065" lon="0.88702">
        <ele>172.69</ele>
        <time>2017-07-03T15:05:11Z</time>
      </trkpt>
      <trkpt lat="45.89063" lon="0.887">
        <ele>172.69</ele>
        <time>2017-07-03T15:05:12Z</time>
      </trkpt>
      <trkpt lat="45.89061" lon="0.88699">
        <ele>172.21</ele>
        <time>2017-07-03T15:05:13Z</time>
      </trkpt>
      <trkpt lat="45.89056" lon="0.88697">
        <ele>172.69</ele>
        <time>2017-07-03T15:05:16Z</time>
      </trkpt>
      <trkpt lat="45.89055" lon="0.88698">
        <ele>172.69</ele>
        <time>2017-07-03T15:05:17Z</time>
      </trkpt>
      <trkpt lat="45.89052" lon="0.887">
        <ele>172.69</ele>
        <time>2017-07-03T15:05:20Z</time>
      </trkpt>
      <trkpt lat="45.89051" lon="0.88701">
        <ele>172.69</ele>
        <time>2017-07-03T15:05:21Z</time>
      </trkpt>
      <trkpt lat="45.8905" lon="0.88703">
        <ele>172.21</ele>
        <time>2017-07-03T15:05:22Z</time>
      </trkpt>
      <trkpt lat="45.8905" lon="0.88705">
        <ele>172.21</ele>
        <time>2017-07-03T15:05:23Z</time>
      </trkpt>
      <trkpt lat="45.89051" lon="0.88708">
        <ele>172.69</ele>
        <time>2017-07-03T15:05:58Z</time>
      </trkpt>
      <trkpt lat="45.89057" lon="0.88723">
        <ele>172.21</ele>
        <time>2017-07-03T15:09:27Z</time>
      </trkpt>
      <trkpt lat="45.89057" lon="0.88725">
        <ele>171.73</ele>
        <time>2017-07-03T15:09:28Z</time>
      </trkpt>
      <trkpt lat="45.89056" lon="0.88726">
        <ele>172.21</ele>
        <time>2017-07-03T15:09:29Z</time>
      </trkpt>
      <trkpt lat="45.89056" lon="0.88728">
        <ele>172.21</ele>
        <time>2017-07-03T15:09:30Z</time>
      </trkpt>
      <trkpt lat="45.89051" lon="0.88734">
        <ele>172.21</ele>
        <time>2017-07-03T15:09:57Z</time>
      </trkpt>
      <trkpt lat="45.89049" lon="0.88736">
        <ele>172.21</ele>
        <time>2017-07-03T15:10:10Z</time>
      </trkpt>
    </trkseg>
  </trk>
</gpx>